Time;durP1;ratioP1;P1;durP2;ratioP2;P2;SDS_P1;SDS_P2;PMS_P1;PMS_P2;Temp;Humidity;BMP_temperature;BMP_pressure;BME280_temperature;BME280_humidity;BME280_pressure;Samples;Min_cycle;Max_cycle;Signal;HPM_P1;HPM_P2
2021/09/04 00:00:19;;;;;;;;;0.25;0.00;;;;;21.99;54.63;101161.94;5017886;28;45539;-81
2021/09/04 00:02:45;;;;;;;;;3.50;3.50;;;;;22.06;55.26;101171.44;5083441;27;45543;-80
2021/09/04 00:05:10;;;;;;;;;2.25;2.25;;;;;21.99;55.06;101167.25;5017347;28;45322;-81
2021/09/04 00:07:36;;;;;;;;;3.25;3.00;;;;;22.02;55.21;101185.69;5017588;28;46264;-80
2021/09/04 00:10:02;;;;;;;;;5.00;3.50;;;;;21.75;55.94;101157.38;5019509;27;45268;-81
2021/09/04 00:12:28;;;;;;;;;2.25;2.00;;;;;21.86;55.92;101187.94;5045842;27;45424;-81
2021/09/04 00:14:54;;;;;;;;;1.00;1.00;;;;;21.79;55.44;101173.16;5111063;27;45854;-80
2021/09/04 00:17:20;;;;;;;;;0.25;0.25;;;;;21.84;55.90;101187.16;5007042;28;46348;-80
2021/09/04 00:19:45;;;;;;;;;1.00;1.00;;;;;21.77;55.80;101186.47;5019024;28;45436;-81
2021/09/04 00:22:11;;;;;;;;;1.00;1.00;;;;;21.78;56.33;101190.88;5064859;27;45537;-80
2021/09/04 00:24:36;;;;;;;;;1.00;0.00;;;;;21.76;56.31;101182.97;5025212;27;45551;-80
2021/09/04 00:27:02;;;;;;;;;4.00;2.00;;;;;21.73;56.46;101188.31;5058867;27;47051;-80
2021/09/04 00:29:28;;;;;;;;;4.75;2.25;;;;;21.68;55.92;101181.44;5019042;27;45400;-81
2021/09/04 00:31:53;;;;;;;;;3.50;1.50;;;;;21.60;56.49;101174.59;5037144;27;45483;-81
2021/09/04 00:34:19;;;;;;;;;2.75;2.25;;;;;21.64;56.82;101176.22;5104834;27;45328;-80
2021/09/04 00:36:44;;;;;;;;;2.00;2.00;;;;;21.54;56.19;101158.00;5018994;28;46013;-80
2021/09/04 00:39:10;;;;;;;;;1.00;1.00;;;;;21.66;56.05;101170.88;5102219;27;45250;-80
2021/09/04 00:41:35;;;;;;;;;0.00;0.00;;;;;21.45;55.43;101144.16;5019506;28;45583;-80
2021/09/04 00:44:02;;;;;;;;;0.00;0.00;;;;;21.60;56.42;101168.44;5087809;27;45428;-80
2021/09/04 00:46:28;;;;;;;;;1.50;0.50;;;;;21.55;56.36;101171.22;5018247;28;45575;-79
2021/09/04 00:48:53;;;;;;;;;0.25;0.00;;;;;21.44;56.37;101168.88;5018919;28;45456;-80
2021/09/04 00:51:18;;;;;;;;;0.25;0.00;;;;;21.37;56.23;101167.34;5019305;28;45369;-79
2021/09/04 00:53:44;;;;;;;;;0.00;0.00;;;;;21.34;56.21;101167.41;5019537;28;45408;-80
2021/09/04 00:56:12;;;;;;;;;0.00;0.00;;;;;21.23;56.01;101144.78;5024577;27;47078;-80
2021/09/04 00:58:38;;;;;;;;;1.00;1.00;;;;;21.27;56.53;101154.41;5083791;27;45398;-80
2021/09/04 01:01:03;;;;;;;;;1.00;1.00;;;;;21.05;56.47;101126.81;5019219;28;45424;-80
2021/09/04 01:03:29;;;;;;;;;1.00;1.00;;;;;21.26;55.98;101170.31;5051490;27;45689;-80
2021/09/04 01:05:54;;;;;;;;;1.00;0.00;;;;;20.98;56.31;101120.84;5035923;27;47185;-80
2021/09/04 01:08:19;;;;;;;;;0.25;0.25;;;;;21.12;56.35;101152.19;5018347;28;45214;-80
2021/09/04 01:10:45;;;;;;;;;0.25;0.25;;;;;21.18;56.61;101159.94;4999709;28;45369;-80
2021/09/04 01:13:10;;;;;;;;;0.00;0.00;;;;;21.12;56.75;101158.34;5018949;28;45397;-80
2021/09/04 01:15:36;;;;;;;;;0.00;0.00;;;;;21.09;56.20;101150.50;5018611;28;46302;-81
2021/09/04 01:18:05;;;;;;;;;0.50;0.25;;;;;21.07;56.56;101147.03;5006507;28;45435;-80
2021/09/04 01:20:33;;;;;;;;;1.25;0.00;;;;;21.19;56.51;101164.31;5018770;28;45365;-81
2021/09/04 01:22:59;;;;;;;;;1.00;0.00;;;;;21.04;56.11;101133.88;5008400;27;45496;-80
2021/09/04 01:25:29;;;;;;;;;1.00;1.00;;;;;21.13;56.14;101146.84;5064852;27;48282;-80
2021/09/04 01:27:56;;;;;;;;;0.00;0.00;;;;;21.20;56.42;101154.63;5018096;28;45326;-80
2021/09/04 01:30:22;;;;;;;;;0.00;0.00;;;;;21.24;55.86;101157.13;5069195;27;45375;-81
2021/09/04 01:32:48;;;;;;;;;2.00;1.00;;;;;21.05;55.92;101132.97;5018938;28;45543;-80
2021/09/04 01:35:20;;;;;;;;;0.00;0.00;;;;;21.26;55.70;101159.72;5023140;27;47269;-81
2021/09/04 01:37:45;;;;;;;;;0.00;0.00;;;;;21.19;55.92;101150.25;5041372;27;46025;-80
2021/09/04 01:40:11;;;;;;;;;0.50;0.50;;;;;21.20;55.98;101152.84;5018332;28;45486;-80
2021/09/04 01:42:37;;;;;;;;;0.00;0.00;;;;;21.17;56.09;101152.06;5004884;27;45547;-80
2021/09/04 01:45:03;;;;;;;;;0.00;0.00;;;;;21.18;56.44;101152.00;5017800;28;45738;-80
2021/09/04 01:47:29;;;;;;;;;1.00;0.00;;;;;21.06;55.79;101136.47;5033804;27;45381;-80
2021/09/04 01:49:55;;;;;;;;;2.75;0.00;;;;;21.20;56.20;101154.63;5018541;27;45243;-80
2021/09/04 01:52:21;;;;;;;;;0.00;0.00;;;;;21.19;55.96;101156.38;5018810;28;45361;-81
2021/09/04 01:54:46;;;;;;;;;0.25;0.00;;;;;21.09;56.23;101144.34;5018334;28;45512;-80
2021/09/04 01:57:12;;;;;;;;;0.00;0.00;;;;;21.04;56.04;101139.16;5021642;27;46706;-80
2021/09/04 01:59:38;;;;;;;;;0.00;0.00;;;;;21.08;55.98;101146.13;5018250;27;45508;-81
2021/09/04 02:02:05;;;;;;;;;0.25;0.25;;;;;21.17;56.31;101152.06;5058901;27;45448;-80
2021/09/04 02:04:30;;;;;;;;;0.00;0.00;;;;;21.18;56.08;101156.44;5008910;27;47322;-80
2021/09/04 02:06:55;;;;;;;;;0.00;0.00;;;;;20.95;56.23;101120.94;5017410;28;45376;-80
2021/09/04 02:09:20;;;;;;;;;1.00;0.00;;;;;21.10;56.41;101141.63;5018211;28;45408;-80
2021/09/04 02:11:46;;;;;;;;;0.00;0.00;;;;;20.95;56.03;101108.53;5018562;28;45400;-80
2021/09/04 02:14:11;;;;;;;;;0.00;0.00;;;;;20.95;56.19;101127.06;5018533;28;45469;-81
2021/09/04 02:16:36;;;;;;;;;0.75;0.75;;;;;20.98;56.04;101140.22;5017457;28;45422;-80
2021/09/04 02:19:02;;;;;;;;;1.00;1.00;;;;;20.89;56.45;101145.75;5018035;28;45416;-80
2021/09/04 02:21:27;;;;;;;;;1.50;1.00;;;;;20.76;56.34;101134.63;5019486;28;45450;-80
2021/09/04 02:23:53;;;;;;;;;0.00;0.00;;;;;20.72;56.65;101149.75;5023521;28;45411;-81
2021/09/04 02:26:18;;;;;;;;;0.00;0.00;;;;;20.60;56.61;101129.78;5021206;28;45517;-80
2021/09/04 02:28:43;;;;;;;;;0.00;0.00;;;;;20.64;57.09;101146.41;5020885;28;45459;-80
2021/09/04 02:31:09;;;;;;;;;0.00;0.00;;;;;20.55;57.14;101121.09;5022448;27;45368;-80
2021/09/04 02:33:34;;;;;;;;;0.00;0.00;;;;;20.57;57.23;101121.03;5020961;28;45895;-80
2021/09/04 02:35:59;;;;;;;;;0.00;0.00;;;;;20.74;57.06;101149.69;5020795;27;45206;-80
2021/09/04 02:38:25;;;;;;;;;0.00;0.00;;;;;20.72;57.17;101144.44;5076760;27;45390;-81
2021/09/04 02:40:50;;;;;;;;;1.00;1.00;;;;;20.53;56.94;101119.41;5021042;28;45575;-80
2021/09/04 02:43:15;;;;;;;;;0.00;0.00;;;;;20.51;57.94;101119.44;5020576;28;45371;-80
2021/09/04 02:45:41;;;;;;;;;0.50;0.50;;;;;20.53;57.04;101115.00;5020448;27;45342;-80
2021/09/04 02:48:06;;;;;;;;;1.00;1.00;;;;;20.51;57.02;101117.69;5020433;28;45332;-80
2021/09/04 02:50:31;;;;;;;;;4.00;0.00;;;;;20.50;57.63;101115.06;5020791;28;45499;-80
2021/09/04 02:52:57;;;;;;;;;0.50;0.00;;;;;20.54;57.02;101113.19;5020502;28;46036;-80
2021/09/04 02:55:22;;;;;;;;;0.00;0.00;;;;;20.71;57.35;101149.78;5020553;28;45341;-81
2021/09/04 02:57:47;;;;;;;;;0.00;0.00;;;;;20.65;57.22;101132.31;5020669;27;45259;-80
2021/09/04 03:00:14;;;;;;;;;0.00;0.00;;;;;20.74;57.01;101152.34;5024703;27;45620;-80
2021/09/04 03:02:39;;;;;;;;;1.00;1.00;;;;;20.58;56.93;101125.44;5120982;27;48638;-80
2021/09/04 03:05:05;;;;;;;;;2.00;1.00;;;;;20.72;57.50;101148.84;5020303;27;45552;-80
2021/09/04 03:07:30;;;;;;;;;0.75;0.00;;;;;20.71;57.63;101149.78;5074838;27;45514;-80
2021/09/04 03:09:55;;;;;;;;;0.00;0.00;;;;;20.67;57.89;101150.78;5019401;28;45330;-79
2021/09/04 03:12:21;;;;;;;;;0.00;0.00;;;;;20.62;57.30;101149.09;5019905;28;46152;-81
2021/09/04 03:14:46;;;;;;;;;0.50;0.50;;;;;20.39;57.17;101115.34;5019333;28;45460;-80
2021/09/04 03:17:11;;;;;;;;;0.00;0.00;;;;;20.46;57.63;101132.78;5068649;27;45537;-80
2021/09/04 03:19:37;;;;;;;;;0.25;0.25;;;;;20.50;57.42;101144.16;5075938;27;45322;-80
2021/09/04 03:22:02;;;;;;;;;0.00;0.00;;;;;20.55;57.37;101152.81;5019967;28;45460;-80
2021/09/04 03:24:28;;;;;;;;;0.00;0.00;;;;;20.48;57.28;101130.09;5019182;28;45527;-80
2021/09/04 03:26:53;;;;;;;;;1.00;0.25;;;;;20.59;57.47;101143.03;5018347;28;45406;-79
2021/09/04 03:29:19;;;;;;;;;1.50;1.00;;;;;20.55;57.64;101141.41;5019997;28;45567;-80
2021/09/04 03:31:44;;;;;;;;;0.00;0.00;;;;;20.48;57.33;101120.41;5019627;28;45343;-80
2021/09/04 03:34:09;;;;;;;;;1.00;0.00;;;;;20.54;57.21;101134.34;5020072;28;45416;-80
2021/09/04 03:36:35;;;;;;;;;0.00;0.00;;;;;20.58;57.54;101139.53;5019669;28;45622;-80
2021/09/04 03:39:00;;;;;;;;;0.00;0.00;;;;;20.52;57.56;101139.69;5020003;28;45541;-80
2021/09/04 03:41:25;;;;;;;;;0.00;0.00;;;;;20.46;58.00;101137.22;5019809;27;46137;-80
2021/09/04 03:43:51;;;;;;;;;2.00;1.00;;;;;20.33;57.68;101115.50;5019384;28;45452;-80
2021/09/04 03:46:16;;;;;;;;;0.00;0.00;;;;;20.33;57.73;101111.09;5054369;27;45420;-80
2021/09/04 03:48:41;;;;;;;;;0.00;0.00;;;;;20.33;57.55;101108.44;5020691;28;45456;-80
2021/09/04 03:51:06;;;;;;;;;0.00;0.00;;;;;20.42;57.47;101128.50;5019646;28;46111;-80
2021/09/04 03:53:32;;;;;;;;;0.00;0.00;;;;;20.34;57.44;101117.25;5019626;28;45299;-80
2021/09/04 03:55:58;;;;;;;;;0.50;0.00;;;;;20.35;57.64;101119.00;5020023;28;45294;-80
2021/09/04 03:58:23;;;;;;;;;2.50;0.00;;;;;20.33;58.30;101110.22;5020016;28;45340;-81
2021/09/04 04:00:48;;;;;;;;;0.00;0.00;;;;;20.29;58.03;101111.22;5019310;27;45319;-81
2021/09/04 04:03:14;;;;;;;;;0.00;0.00;;;;;20.34;58.21;101118.09;5067394;27;45408;-80
2021/09/04 04:05:40;;;;;;;;;4.75;3.00;;;;;20.46;58.34;101131.94;5047035;27;45448;-80
2021/09/04 04:08:05;;;;;;;;;0.00;0.00;;;;;20.37;57.92;101118.03;5061609;27;45450;-80
2021/09/04 04:10:31;;;;;;;;;0.00;0.00;;;;;20.42;57.91;101117.06;5019413;28;45429;-80
2021/09/04 04:12:56;;;;;;;;;0.75;0.00;;;;;20.41;58.23;101115.31;5068423;27;45492;-81
2021/09/04 04:15:21;;;;;;;;;1.00;1.00;;;;;20.50;57.97;101125.66;5019345;28;45534;-80
2021/09/04 04:17:47;;;;;;;;;0.00;0.00;;;;;20.41;58.15;101113.53;5020111;27;45463;-81
2021/09/04 04:20:12;;;;;;;;;0.00;0.00;;;;;20.40;58.29;101110.94;5019526;28;45575;-80
2021/09/04 04:22:38;;;;;;;;;4.75;1.00;;;;;20.37;58.27;101112.75;5018707;28;45392;-80
2021/09/04 04:25:03;;;;;;;;;0.00;0.00;;;;;20.38;58.15;101129.50;5023788;27;45425;-81
2021/09/04 04:27:28;;;;;;;;;0.00;0.00;;;;;20.19;58.43;101103.53;5086343;27;45647;-81
2021/09/04 04:29:54;;;;;;;;;0.00;0.00;;;;;20.33;58.59;101128.72;5018940;28;45258;-80
2021/09/04 04:32:19;;;;;;;;;3.00;0.00;;;;;20.18;58.65;101109.72;5019000;28;45401;-80
2021/09/04 04:34:44;;;;;;;;;0.00;0.00;;;;;20.29;58.68;101117.38;5086071;27;45480;-80
2021/09/04 04:37:10;;;;;;;;;0.00;0.00;;;;;20.24;58.70;101106.03;5020246;27;45393;-80
2021/09/04 04:39:35;;;;;;;;;0.00;0.00;;;;;20.29;58.85;101117.38;5019251;28;45367;-80
2021/09/04 04:42:01;;;;;;;;;0.00;0.00;;;;;20.33;58.68;101116.38;5019024;27;45271;-80
2021/09/04 04:44:26;;;;;;;;;0.00;0.00;;;;;20.29;58.53;101106.81;5088133;27;45485;-81
2021/09/04 04:46:51;;;;;;;;;0.00;0.00;;;;;20.43;58.63;101127.56;5019389;28;45515;-81
2021/09/04 04:49:17;;;;;;;;;1.25;0.00;;;;;20.43;58.64;101126.72;5019085;28;45620;-80
2021/09/04 04:51:42;;;;;;;;;0.00;0.00;;;;;20.34;58.77;101109.34;5044469;27;45974;-80
2021/09/04 04:54:07;;;;;;;;;0.75;0.75;;;;;20.31;58.68;101096.19;5061912;27;45351;-81
2021/09/04 04:56:33;;;;;;;;;0.00;0.00;;;;;20.31;58.81;101119.97;5019210;28;45538;-80
2021/09/04 04:58:58;;;;;;;;;1.00;1.00;;;;;20.30;58.83;101118.25;5018460;28;45441;-81
2021/09/04 05:01:23;;;;;;;;;1.50;0.00;;;;;20.15;58.64;101103.66;5064006;27;45310;-81
2021/09/04 05:03:49;;;;;;;;;1.00;0.00;;;;;20.07;59.13;101107.38;5018932;28;45626;-80
2021/09/04 05:06:14;;;;;;;;;0.00;0.00;;;;;20.07;59.69;101106.50;5019276;28;45481;-81
2021/09/04 05:08:40;;;;;;;;;1.00;1.00;;;;;20.13;59.18;101119.56;5000435;28;47891;-81
2021/09/04 05:11:05;;;;;;;;;0.00;0.00;;;;;20.09;59.46;101113.47;5018895;28;45368;-81
2021/09/04 05:13:30;;;;;;;;;1.00;1.00;;;;;20.14;59.66;101131.84;5018701;28;45327;-81
2021/09/04 05:15:56;;;;;;;;;0.00;0.00;;;;;20.20;59.38;101144.03;5018926;28;45331;-81
2021/09/04 05:18:21;;;;;;;;;0.00;0.00;;;;;20.14;59.53;101131.84;5018967;28;45366;-80
2021/09/04 05:20:47;;;;;;;;;1.00;0.00;;;;;20.19;59.79;101140.56;5117788;27;45388;-80
2021/09/04 05:23:13;;;;;;;;;0.00;0.00;;;;;20.28;59.36;101139.44;5018947;28;45346;-80
2021/09/04 05:25:38;;;;;;;;;1.25;1.25;;;;;20.30;59.50;101144.69;5019020;28;45393;-80
2021/09/04 05:28:04;;;;;;;;;0.25;0.25;;;;;20.29;59.79;101151.75;5018132;27;46172;-80
2021/09/04 05:30:30;;;;;;;;;0.00;0.00;;;;;20.19;59.93;101135.25;5018137;28;45351;-80
2021/09/04 05:32:55;;;;;;;;;1.00;1.00;;;;;20.32;59.47;101150.78;5018705;27;45462;-80
2021/09/04 05:35:20;;;;;;;;;1.50;1.25;;;;;20.31;59.79;101154.34;5018816;28;45821;-81
2021/09/04 05:37:47;;;;;;;;;0.25;0.00;;;;;20.24;59.52;101138.63;5018186;27;45981;-80
2021/09/04 05:40:12;;;;;;;;;2.00;0.25;;;;;20.32;59.88;101150.78;5064930;27;45400;-80
2021/09/04 05:42:38;;;;;;;;;0.75;0.00;;;;;20.22;59.54;101137.81;5018172;28;45396;-80
2021/09/04 05:45:07;;;;;;;;;0.75;0.75;;;;;20.21;59.76;101130.78;5070970;27;45393;-80
2021/09/04 05:47:32;;;;;;;;;0.25;0.25;;;;;20.42;59.90;101160.22;5008860;28;45414;-80
2021/09/04 05:49:58;;;;;;;;;0.25;0.00;;;;;20.42;59.67;101152.28;5058091;27;45401;-80
2021/09/04 05:52:23;;;;;;;;;0.50;0.00;;;;;20.32;59.74;101129.63;5018205;28;45424;-80
2021/09/04 05:54:48;;;;;;;;;0.75;0.75;;;;;20.31;59.88;101143.78;5018056;28;45563;-80
2021/09/04 05:57:14;;;;;;;;;0.00;0.00;;;;;20.24;59.88;101130.72;5022297;27;48255;-80
2021/09/04 05:59:39;;;;;;;;;0.75;0.75;;;;;20.27;59.33;101148.25;5016166;28;45389;-80
2021/09/04 06:02:05;;;;;;;;;1.00;1.00;;;;;20.20;59.88;101142.28;5061032;27;45337;-81
2021/09/04 06:04:30;;;;;;;;;1.00;1.00;;;;;20.19;59.58;101143.19;5018659;27;45510;-80
2021/09/04 06:06:56;;;;;;;;;2.00;2.00;;;;;20.21;60.33;101153.72;5017587;28;45510;-80
2021/09/04 06:09:22;;;;;;;;;0.00;0.00;;;;;20.20;59.93;101139.63;5028241;27;45761;-80
2021/09/04 06:11:49;;;;;;;;;1.00;0.75;;;;;20.17;59.75;101144.13;5018272;28;45462;-80
2021/09/04 06:14:14;;;;;;;;;2.00;0.00;;;;;20.28;60.15;101165.00;5026299;27;45559;-80
2021/09/04 06:16:40;;;;;;;;;0.00;0.00;;;;;20.29;59.96;101172.88;5017335;28;45371;-80
2021/09/04 06:19:05;;;;;;;;;2.00;0.75;;;;;20.30;60.26;101169.31;5016374;27;45413;-80
2021/09/04 06:21:30;;;;;;;;;0.00;0.00;;;;;20.23;60.46;101163.34;5051079;27;45346;-81
2021/09/04 06:23:56;;;;;;;;;2.00;1.00;;;;;20.35;60.43;101177.16;5017479;28;45403;-80
2021/09/04 06:26:21;;;;;;;;;0.00;0.00;;;;;20.24;60.45;101170.34;5017052;28;45388;-80
2021/09/04 06:28:46;;;;;;;;;1.00;0.00;;;;;20.32;61.06;101179.88;5017535;28;45386;-80
2021/09/04 06:31:12;;;;;;;;;1.00;1.00;;;;;20.34;61.34;101181.56;5018086;28;45385;-80
2021/09/04 06:33:37;;;;;;;;;0.75;0.75;;;;;20.22;61.09;101158.09;5017852;28;45448;-80
2021/09/04 06:36:02;;;;;;;;;0.00;0.00;;;;;20.34;61.50;101173.63;5017736;27;46102;-79
2021/09/04 06:38:28;;;;;;;;;0.00;0.00;;;;;20.49;61.96;101179.44;5075302;27;45362;-80
2021/09/04 06:40:53;;;;;;;;;1.00;1.00;;;;;20.17;61.82;101121.22;5007532;27;45984;-80
2021/09/04 06:43:19;;;;;;;;;1.00;0.00;;;;;20.19;62.15;101129.97;5017881;27;45367;-80
2021/09/04 06:45:44;;;;;;;;;0.25;0.25;;;;;20.45;62.13;101173.38;5017048;28;45637;-79
2021/09/04 06:48:09;;;;;;;;;3.00;0.00;;;;;20.38;62.69;101166.50;5017414;28;45375;-80
2021/09/04 06:50:35;;;;;;;;;1.00;1.00;;;;;20.34;62.33;101155.13;5003932;27;45467;-80
2021/09/04 06:53:01;;;;;;;;;2.50;1.00;;;;;20.44;62.80;101191.91;5009463;27;45604;-82
2021/09/04 06:55:27;;;;;;;;;1.00;1.00;;;;;20.25;62.87;101166.78;5007822;27;45430;-80
2021/09/04 06:57:53;;;;;;;;;0.75;0.75;;;;;20.43;62.73;101191.03;5078684;27;46443;-80
2021/09/04 07:00:19;;;;;;;;;2.75;1.00;;;;;20.30;63.41;101161.41;5016749;27;45327;-80
2021/09/04 07:02:44;;;;;;;;;0.00;0.00;;;;;20.41;63.33;101177.00;5016827;28;45436;-80
2021/09/04 07:05:10;;;;;;;;;1.00;1.00;;;;;20.29;63.39;101161.44;5008559;27;47944;-79
2021/09/04 07:07:35;;;;;;;;;1.75;0.50;;;;;20.33;63.00;101157.81;5017329;28;45390;-80
2021/09/04 07:10:00;;;;;;;;;0.25;0.25;;;;;20.26;63.57;101149.19;5019999;28;45416;-79
2021/09/04 07:12:26;;;;;;;;;2.00;1.25;;;;;20.37;63.56;101160.34;5044095;27;45427;-80
2021/09/04 07:14:51;;;;;;;;;0.75;0.00;;;;;20.53;63.63;101183.75;5019341;27;45462;-80
2021/09/04 07:17:16;;;;;;;;;1.50;1.00;;;;;20.49;63.83;101166.22;5019658;28;45602;-80
2021/09/04 07:19:43;;;;;;;;;0.00;0.00;;;;;20.59;63.65;101174.78;5019961;28;45515;-79
2021/09/04 07:22:08;;;;;;;;;2.25;0.00;;;;;20.40;63.59;101147.94;5039350;27;45604;-82
2021/09/04 07:24:34;;;;;;;;;2.00;1.00;;;;;20.50;63.93;101173.25;5019795;28;46598;-81
2021/09/04 07:26:59;;;;;;;;;1.75;1.00;;;;;20.41;64.02;101158.50;5019833;28;45323;-80
2021/09/04 07:29:24;;;;;;;;;1.00;1.00;;;;;20.28;64.95;101134.16;5027832;27;45784;-81
2021/09/04 07:31:50;;;;;;;;;2.00;1.00;;;;;20.54;65.11;101180.19;5019488;28;45296;-80
2021/09/04 07:34:15;;;;;;;;;2.00;2.00;;;;;20.39;64.97;101157.66;5021496;27;45316;-81
2021/09/04 07:36:41;;;;;;;;;0.00;0.00;;;;;20.47;65.12;101157.47;5022290;28;45505;-80
2021/09/04 07:39:06;;;;;;;;;0.00;0.00;;;;;20.59;65.68;101178.31;5031768;27;45449;-80
2021/09/04 07:41:32;;;;;;;;;1.50;1.00;;;;;20.46;65.93;101167.16;5045519;27;45630;-79
2021/09/04 07:43:57;;;;;;;;;2.00;1.00;;;;;20.49;66.54;101184.75;5028969;27;45867;-81
2021/09/04 07:46:23;;;;;;;;;2.25;2.00;;;;;20.41;66.62;101169.06;5019532;28;45405;-81
2021/09/04 07:48:49;;;;;;;;;3.00;0.75;;;;;20.44;67.35;101165.47;5021555;27;45355;-80
2021/09/04 07:51:14;;;;;;;;;1.25;1.25;;;;;20.51;67.39;101170.56;5055907;27;45531;-79
2021/09/04 07:53:40;;;;;;;;;1.50;0.75;;;;;20.61;67.14;101167.69;5065374;27;45372;-82
2021/09/04 07:56:05;;;;;;;;;0.75;0.75;;;;;20.65;67.22;101166.69;5026373;27;45353;-83
2021/09/04 07:58:30;;;;;;;;;1.25;1.25;;;;;20.92;66.96;101190.66;5029043;27;45391;-81
2021/09/04 08:00:56;;;;;;;;;2.00;2.00;;;;;20.90;66.07;101179.28;5022745;27;45550;-84
2021/09/04 08:03:21;;;;;;;;;1.00;1.00;;;;;20.94;66.22;101175.63;5039389;27;48364;-82
2021/09/04 08:05:46;;;;;;;;;3.00;2.50;;;;;21.07;65.30;101176.13;5028859;27;45405;-83
2021/09/04 08:08:12;;;;;;;;;2.25;1.75;;;;;21.17;65.89;101190.00;5034002;27;45859;-82
2021/09/04 08:10:39;;;;;;;;;1.75;1.75;;;;;20.97;66.11;101167.59;5053051;27;45404;-84
2021/09/04 08:13:05;;;;;;;;;2.00;2.00;;;;;21.30;66.46;101200.19;5019119;27;45995;-80
2021/09/04 08:15:30;;;;;;;;;3.25;0.50;;;;;21.24;66.50;101173.00;5031355;27;45496;-80
2021/09/04 08:17:55;;;;;;;;;1.75;1.50;;;;;21.36;66.17;101168.25;5044739;27;45501;-82
2021/09/04 08:20:21;;;;;;;;;1.50;1.50;;;;;21.41;65.43;101184.88;5018927;27;45358;-81
2021/09/04 08:22:46;;;;;;;;;2.00;1.00;;;;;21.42;65.30;101198.97;5025830;27;46137;-82
2021/09/04 08:25:11;;;;;;;;;2.50;2.25;;;;;21.27;65.84;101177.34;5020969;27;45412;-80
2021/09/04 08:27:37;;;;;;;;;1.00;0.50;;;;;21.46;65.82;101196.19;5023451;27;45523;-80
2021/09/04 08:30:04;;;;;;;;;1.00;1.00;;;;;21.53;65.97;101186.28;5039010;27;45349;-81
2021/09/04 08:32:29;;;;;;;;;1.00;1.00;;;;;21.62;65.24;101183.34;5001836;27;47735;-79
2021/09/04 08:34:54;;;;;;;;;2.25;2.25;;;;;21.92;65.27;101208.13;5021113;27;45478;-81
2021/09/04 08:37:20;;;;;;;;;2.75;2.75;;;;;21.85;65.00;101215.38;5050513;27;45379;-79
2021/09/04 08:39:45;;;;;;;;;3.00;1.00;;;;;21.80;65.76;101191.66;5088038;27;45410;-82
2021/09/04 08:42:10;;;;;;;;;1.00;1.00;;;;;21.92;65.01;101205.47;5064914;27;45805;-80
2021/09/04 08:44:36;;;;;;;;;2.00;2.00;;;;;22.06;64.70;101219.13;5089243;27;45403;-81
2021/09/04 08:47:02;;;;;;;;;3.00;2.50;;;;;22.03;64.78;101219.22;5018440;28;45398;-81
2021/09/04 08:49:28;;;;;;;;;6.50;4.00;;;;;21.99;64.20;101207.00;5019204;27;45586;-81
2021/09/04 08:51:54;;;;;;;;;3.00;1.50;;;;;22.09;64.09;101210.22;5019076;28;45991;-81
2021/09/04 08:54:19;;;;;;;;;3.25;2.00;;;;;22.18;63.74;101233.78;5017270;28;45290;-82
2021/09/04 08:56:45;;;;;;;;;0.00;0.00;;;;;22.13;63.96;101231.28;5020097;28;45337;-81
2021/09/04 08:59:10;;;;;;;;;1.25;1.00;;;;;22.02;64.39;101209.56;5019073;27;45506;-81
2021/09/04 09:01:45;;;;;;;;;0.50;0.50;;;;;22.18;64.43;101217.88;5018488;28;45303;-81
2021/09/04 09:04:17;;;;;;;;;1.75;1.00;;;;;22.41;64.58;101234.78;5018550;27;45391;-80
2021/09/04 09:06:45;;;;;;;;;1.50;1.25;;;;;22.54;64.05;101232.59;5120544;27;45366;-81
2021/09/04 09:09:16;;;;;;;;;4.50;2.00;;;;;22.64;63.97;101233.19;5018779;28;45271;-80
2021/09/04 09:11:41;;;;;;;;;1.00;1.00;;;;;22.61;63.44;101217.38;5042929;27;48295;-80
2021/09/04 09:14:06;;;;;;;;;2.00;2.00;;;;;22.53;63.02;101202.56;5025711;27;45435;-81
2021/09/04 09:16:32;;;;;;;;;3.00;2.50;;;;;22.81;63.16;101234.41;5018242;28;45408;-81
2021/09/04 09:18:59;;;;;;;;;1.00;1.00;;;;;23.02;63.57;101246.00;5012156;27;45374;-81
2021/09/04 09:21:32;;;;;;;;;1.50;1.00;;;;;22.90;63.00;101215.47;5018832;28;45498;-80
2021/09/04 09:24:10;;;;;;;;;3.00;1.00;;;;;22.84;62.86;101218.34;5038906;27;45649;-84
2021/09/04 09:26:46;;;;;;;;;3.00;1.00;;;;;22.90;62.98;101205.72;5000382;28;45493;-80
2021/09/04 09:29:34;;;;;;;;;3.25;2.25;;;;;23.00;62.74;101238.09;5018315;27;45313;-81
2021/09/04 09:32:09;;;;;;;;;6.00;1.50;;;;;23.11;63.43;101242.16;5075703;27;47464;-81
2021/09/04 09:34:40;;;;;;;;;2.00;1.50;;;;;23.27;62.84;101237.16;5103529;27;46098;-81
2021/09/04 09:37:06;;;;;;;;;4.50;1.00;;;;;23.34;62.57;101240.47;5018025;28;45353;-83
2021/09/04 09:39:43;;;;;;;;;1.50;0.75;;;;;23.31;62.53;101214.88;5018358;28;45368;-81
2021/09/04 09:42:11;;;;;;;;;2.00;2.00;;;;;23.60;63.24;101231.53;5018007;28;45377;-81
2021/09/04 09:44:38;;;;;;;;;1.25;1.25;;;;;23.56;62.55;101203.34;5017765;27;45789;-81
2021/09/04 09:47:07;;;;;;;;;0.75;0.75;;;;;23.79;62.15;101237.00;5016104;27;45384;-81
2021/09/04 09:49:43;;;;;;;;;1.00;1.00;;;;;23.89;62.01;101231.31;5057346;27;45435;-81
2021/09/04 09:52:17;;;;;;;;;0.00;0.00;;;;;23.94;61.55;101208.06;5024083;27;47522;-81
2021/09/04 09:54:47;;;;;;;;;0.75;0.75;;;;;24.33;60.70;101224.25;5017752;27;45353;-81
2021/09/04 09:57:13;;;;;;;;;1.25;1.25;;;;;24.38;59.93;101225.78;5017358;27;45590;-81
2021/09/04 09:59:42;;;;;;;;;1.25;0.75;;;;;24.48;60.01;101228.94;5017613;28;45398;-81
2021/09/04 10:02:10;;;;;;;;;0.25;0.00;;;;;24.43;60.24;101230.91;5058239;27;48550;-81
2021/09/04 10:04:37;;;;;;;;;2.00;1.50;;;;;24.28;60.00;101216.47;5017503;28;45481;-81
2021/09/04 10:07:06;;;;;;;;;1.00;0.25;;;;;24.31;60.32;101224.31;5017348;27;45467;-82
2021/09/04 10:09:32;;;;;;;;;1.75;1.50;;;;;24.07;59.84;101195.13;5018189;28;45336;-81
2021/09/04 10:11:58;;;;;;;;;1.25;1.25;;;;;24.08;59.73;101223.47;5017768;28;45322;-81
2021/09/04 10:14:25;;;;;;;;;1.00;0.50;;;;;24.03;60.11;101223.66;5017210;27;45291;-80
2021/09/04 10:16:54;;;;;;;;;1.00;1.00;;;;;24.01;59.87;101224.66;4997496;28;45516;-82
2021/09/04 10:19:24;;;;;;;;;0.00;0.00;;;;;23.99;59.94;101227.38;5044365;27;45447;-83
2021/09/04 10:21:57;;;;;;;;;0.00;0.00;;;;;23.94;60.16;101226.66;5071270;27;47741;-82
2021/09/04 10:24:42;;;;;;;;;0.00;0.00;;;;;23.93;59.59;101219.63;5017147;28;45453;-81
2021/09/04 10:27:08;;;;;;;;;0.25;0.25;;;;;23.84;59.41;101204.91;5016683;27;45582;-81
2021/09/04 10:29:45;;;;;;;;;1.00;1.00;;;;;24.03;59.65;101217.44;5018224;28;45431;-83
2021/09/04 10:32:16;;;;;;;;;0.25;0.00;;;;;23.90;59.22;101187.84;5044191;27;47416;-82
2021/09/04 10:34:44;;;;;;;;;0.50;0.25;;;;;24.09;59.49;101219.00;5023192;27;45491;-82
2021/09/04 10:37:13;;;;;;;;;0.00;0.00;;;;;24.17;58.97;101224.91;5036711;27;45567;-82
2021/09/04 10:39:53;;;;;;;;;0.00;0.00;;;;;24.20;58.90;101219.47;5013920;27;45418;-85
2021/09/04 10:42:29;;;;;;;;;2.25;1.25;;;;;24.31;58.89;101218.16;5015893;27;45630;-82
2021/09/04 10:45:00;;;;;;;;;1.00;1.00;;;;;24.12;59.08;101178.97;5005184;28;45758;-80
2021/09/04 10:47:26;;;;;;;;;4.25;1.25;;;;;24.44;58.89;101221.16;5022122;27;45275;-81
2021/09/04 10:49:53;;;;;;;;;0.75;0.75;;;;;24.41;58.87;101201.72;5068317;27;45509;-82
2021/09/04 10:52:56;;;;;;;;;3.00;1.50;;;;;24.34;58.87;101189.63;5020100;27;46598;-81
2021/09/04 10:55:30;;;;;;;;;1.00;1.00;;;;;24.60;58.54;101216.91;5060372;27;45327;-82
2021/09/04 10:58:02;;;;;;;;;1.25;1.25;;;;;24.66;58.25;101215.78;5054521;27;45489;-81
2021/09/04 11:00:28;;;;;;;;;2.50;2.50;;;;;24.75;58.09;101218.03;5019507;27;45729;-81
2021/09/04 11:02:59;;;;;;;;;4.00;1.00;;;;;24.91;57.62;101215.59;5018258;28;46476;-80
2021/09/04 11:05:44;;;;;;;;;3.00;1.75;;;;;24.84;57.19;101186.63;5021222;27;45507;-80
2021/09/04 11:08:12;;;;;;;;;2.00;0.00;;;;;25.11;57.26;101200.50;5027491;27;45478;-80
2021/09/04 11:10:43;;;;;;;;;2.00;1.00;;;;;25.25;57.08;101207.88;5034942;28;45656;-80
2021/09/04 11:13:14;;;;;;;;;1.00;0.75;;;;;25.32;56.22;101203.09;5019669;28;46142;-80
2021/09/04 11:15:44;;;;;;;;;3.25;2.00;;;;;25.33;56.28;101215.53;5018081;28;45384;-80
2021/09/04 11:18:17;;;;;;;;;1.50;1.00;;;;;25.38;56.17;101213.50;5037025;27;45428;-80
2021/09/04 11:20:50;;;;;;;;;0.00;0.00;;;;;25.40;55.91;101200.09;5017094;27;45569;-82